Overview Statistics Trail Chart Weather Telemetry Raw packets
 

This is the latest recevied weather packets stored in our database for station/object E25WMA-7. If no packets are shown the sender has not sent any weather packets the latest 10 day(s).

<< 34 35 36 37 38 >>
Time Temp. Humidity Pressure Rain* Wind** Luminosity Snow
1787769341 30.56° C 69% 999 hPa - - 0 W/m² -
1787768419 31.11° C 68% 999 hPa - - 0 W/m² -
1787767497 30.56° C 69% 999 hPa - - 0 W/m² -
1787766577 31.11° C 68% 999 hPa - - 0 W/m² -
1787765653 31.11° C 68% 999 hPa - - 0 W/m² -
1787764731 31.11° C 68% 1000 hPa - - 0 W/m² -
1787763809 31.67° C 68% 1000 hPa - - 0 W/m² -
1787762887 31.67° C 68% 1000 hPa - - 0 W/m² -
1787761965 31.67° C 67% 1000 hPa - - 0 W/m² -
1787761043 31.67° C 67% 1000 hPa - - 0 W/m² -
1787760121 31.67° C 67% 1000 hPa - - 0 W/m² -
1787759199 31.67° C 64% 1000 hPa - - 0 W/m² -
1787758276 31.67° C 66% 1000 hPa - - 0 W/m² -
1787757354 31.67° C 66% 1000 hPa - - 0 W/m² -
1787756433 31.67° C 65% 1000 hPa - - 0 W/m² -
1787755510 31.67° C 63% 1000 hPa - - 0 W/m² -
1787754588 31.67° C 66% 1000 hPa - - 0 W/m² -
1787753666 31.67° C 67% 1000 hPa - - 0 W/m² -
1787752745 31.67° C 67% 1000 hPa - - 0 W/m² -
1787751823 31.11° C 68% 999 hPa - - 0 W/m² -
1787750918 32.22° C 64% 999 hPa - - 0 W/m² -
1787749979 32.78° C 62% 999 hPa - - 0 W/m² -
1787749056 32.78° C 61% 998 hPa - - 0 W/m² -
1787748144 32.78° C 61% 998 hPa - - 0 W/m² -
1787747212 32.78° C 60% 998 hPa - - 0 W/m² -

* Rain since midnight (hover to see other rain measurements)
** Current wind speed in m/s (hover to see current wind gust speed)